Tuesday, January 15, 2019, 6:31 PM EST
Back to Local

KGED, Georgetown Sussex Co Airport

Location: Georgetown, DE, United States Lat: 38.683
Local Time: 6:31 PM EST (23:31 GMT) Lon: -75.367
Time Zone: US/Eastern Elev: 52 ft

Show me the last for .
Show Coded

Time T Td Feel RH Dir Speed Gust Alt SLP Vis Weather Sky Remarks
2019-01-15 17:54 35 21 - 56 - Calm - 30.18 30.17 10 CLR None
2019-01-15 16:54 38 20 33 47 280° 7 - 30.16 30.16 10 CLR None
2019-01-15 15:54 39 20 37 45 270° 3 - 30.16 30.16 10 CLR None
2019-01-15 14:54 40 21 35 46 280° 7 - 30.16 30.16 10 CLR None
2019-01-15 13:54 40 21 35 46 290° 7 - 30.15 30.15 10 CLR None
2019-01-15 12:54 39 20 - 45 - Calm - 30.16 30.16 10 CLR 6-hr Min Temp (1pm): 19.9°F
6-hr Max Temp (1pm): 39.9°F
2019-01-15 11:54 39 21 35 48 10° 6 - 30.19 30.19 10 CLR None
2019-01-15 10:54 37 21 31 51 360° 8 - 30.22 30.22 10 CLR None
2019-01-15 09:54 33 21 28 60 340° 6 - 30.23 30.23 10 CLR None
2019-01-15 08:54 27 19 - 71 - Calm - 30.21 30.21 8 CLR None
2019-01-15 07:54 20 16 - 84 - Calm - 30.18 30.18 5 BR CLR None
2019-01-15 06:54 22 16 16 77 310° 5 - 30.17 30.17 8 CLR 6-hr Min Temp (7am): 18.0°F
6-hr Max Temp (7am): 23.0°F
2019-01-15 05:54 22 16 - 77 - Calm - 30.16 30.16 9 CLR None
2019-01-15 04:54 21 16 - 80 - Calm - 30.15 30.15 10 CLR None
2019-01-15 03:54 20 15 - 81 - Calm - 30.16 30.16 10 CLR None
2019-01-15 02:54 21 15 - 77 - Calm - 30.17 30.17 10 CLR None
2019-01-15 01:54 20 15 - 81 - Calm - 30.17 30.17 10 CLR None
2019-01-15 00:54 23 16 - 74 - Calm - 30.18 30.17 10 CLR 6-hr Min Temp (1am): 21.0°F
6-hr Max Temp (1am): 30.0°F
2019-01-14 23:54 23 17 - 77 - Calm - 30.19 30.19 10 CLR 24-hr Min Temp (12am): 21.0°F
24-hr Max Temp (12am): 35.1°F
2019-01-14 22:54 22 16 - 77 - Calm - 30.20 30.20 10 CLR None
2019-01-14 21:54 26 17 - 68 - Calm - 30.19 30.19 10 CLR None
2019-01-14 20:54 27 17 - 65 - Calm - 30.19 30.19 10 CLR None
2019-01-14 19:54 28 17 - 62 - Calm - 30.19 30.19 10 CLR None
2019-01-14 18:54 30 18 25 60 310° 5 - 30.21 30.21 10 CLR 6-hr Min Temp (7pm): 30.0°F
6-hr Max Temp (7pm): 35.1°F

Support USWX by starting your Amazon purchase here.